createdAt,value
2022-10-05T00:01:36.167Z,17.10
2022-10-05T00:05:33.199Z,17.10
2022-10-05T00:09:23.144Z,17.10
2022-10-05T00:13:13.373Z,17.10
2022-10-05T00:16:56.872Z,17.10
2022-10-05T00:20:41.470Z,17.10
2022-10-05T00:24:23.687Z,17.10
2022-10-05T00:28:22.934Z,17.10
2022-10-05T00:32:05.199Z,17.10
2022-10-05T00:35:47.218Z,17.10
2022-10-05T00:39:30.087Z,17.10
2022-10-05T00:43:20.713Z,17.10
2022-10-05T00:47:12.168Z,17.10
2022-10-05T00:51:18.461Z,17.10
2022-10-05T00:55:09.391Z,17.10
2022-10-05T00:59:40.117Z,17.10
2022-10-05T01:04:19.238Z,17.10
2022-10-05T01:08:37.323Z,17.10
2022-10-05T01:12:40.632Z,17.10
2022-10-05T01:16:47.611Z,17.10
2022-10-05T01:21:14.550Z,17.10
2022-10-05T01:25:19.423Z,17.10
2022-10-05T01:29:32.604Z,17.00
2022-10-05T01:33:20.581Z,17.10
2022-10-05T01:37:05.263Z,17.10
2022-10-05T01:41:08.894Z,17.10
2022-10-05T01:45:14.656Z,17.10
2022-10-05T01:49:35.954Z,17.00
2022-10-05T01:53:48.303Z,17.10
2022-10-05T01:57:35.714Z,17.10
2022-10-05T02:01:32.417Z,17.00
2022-10-05T02:05:18.585Z,17.10
2022-10-05T02:09:17.304Z,17.10
2022-10-05T02:13:03.502Z,17.00
2022-10-05T02:16:50.382Z,17.10
2022-10-05T02:20:35.202Z,17.10
2022-10-05T02:24:32.475Z,17.10
2022-10-05T02:28:20.871Z,17.10
2022-10-05T02:32:15.731Z,17.10
2022-10-05T02:36:24.048Z,17.10
2022-10-05T02:40:41.626Z,17.10
2022-10-05T02:44:52.959Z,17.10
2022-10-05T02:48:52.686Z,17.10
2022-10-05T02:52:50.944Z,17.10
2022-10-05T02:56:44.824Z,17.10
2022-10-05T03:00:35.041Z,17.10
2022-10-05T03:04:26.307Z,17.00
2022-10-05T03:08:20.208Z,17.10
2022-10-05T03:12:25.275Z,17.00
2022-10-05T03:16:13.275Z,17.10
2022-10-05T03:20:07.205Z,17.10
2022-10-05T03:24:15.168Z,17.10
2022-10-05T03:28:13.761Z,17.10
2022-10-05T03:32:07.713Z,17.00
2022-10-05T03:36:07.557Z,17.00
2022-10-05T03:40:03.169Z,17.00
2022-10-05T03:44:03.582Z,17.00
2022-10-05T03:48:30.196Z,17.00
2022-10-05T03:52:20.873Z,17.00
2022-10-05T03:56:23.386Z,17.10
2022-10-05T04:00:07.682Z,17.00
2022-10-05T04:04:04.271Z,17.00
2022-10-05T04:07:54.129Z,17.00
2022-10-05T04:11:43.479Z,17.00
2022-10-05T04:15:37.948Z,17.00
2022-10-05T04:19:24.753Z,17.00
2022-10-05T04:23:44.238Z,17.00
2022-10-05T04:27:41.913Z,17.00
2022-10-05T04:31:29.922Z,16.90
2022-10-05T04:35:53.182Z,16.90
2022-10-05T04:40:07.325Z,16.90
2022-10-05T04:44:04.326Z,16.90
2022-10-05T04:48:11.701Z,16.90
2022-10-05T04:52:24.643Z,16.90
2022-10-05T04:56:16.889Z,16.80
2022-10-05T05:00:22.530Z,16.80
2022-10-05T05:04:33.362Z,16.80
2022-10-05T05:08:29.441Z,16.70
2022-10-05T05:12:11.306Z,16.60
2022-10-05T05:16:07.589Z,16.60
2022-10-05T05:20:35.187Z,16.60
2022-10-05T05:24:22.946Z,16.50
2022-10-05T05:28:30.144Z,16.40
2022-10-05T05:32:15.121Z,16.40
2022-10-05T05:36:38.893Z,16.40
2022-10-05T05:40:59.405Z,16.40
2022-10-05T05:44:52.836Z,16.40
2022-10-05T05:48:40.857Z,16.30
2022-10-05T05:52:26.174Z,16.30
2022-10-05T05:56:17.919Z,16.30
2022-10-05T06:00:00.617Z,16.30
2022-10-05T06:03:56.644Z,16.30
2022-10-05T06:07:39.925Z,16.30
2022-10-05T06:11:35.192Z,16.30
2022-10-05T06:15:25.902Z,16.40
2022-10-05T06:19:17.634Z,16.40
2022-10-05T06:23:04.188Z,16.50
2022-10-05T06:27:16.830Z,16.60
2022-10-05T06:31:26.701Z,16.60
2022-10-05T06:35:19.572Z,16.70
2022-10-05T06:39:32.314Z,16.70
2022-10-05T06:43:45.271Z,16.80
2022-10-05T06:47:27.122Z,16.80
2022-10-05T06:51:31.880Z,16.80
2022-10-05T06:55:18.160Z,16.90
2022-10-05T06:59:25.707Z,16.90
2022-10-05T07:03:25.749Z,16.90
2022-10-05T07:07:16.629Z,17.00
2022-10-05T07:11:23.501Z,17.00
2022-10-05T07:15:23.741Z,17.00
2022-10-05T07:19:24.425Z,16.90
2022-10-05T07:23:32.211Z,17.00
2022-10-05T07:27:22.958Z,17.00
2022-10-05T07:31:12.161Z,17.00
2022-10-05T07:35:35.306Z,17.00
2022-10-05T07:39:20.266Z,17.10
2022-10-05T07:43:20.015Z,17.10
2022-10-05T07:47:07.395Z,17.10
2022-10-05T07:50:57.922Z,17.10
2022-10-05T07:54:50.371Z,17.20
2022-10-05T07:58:45.160Z,17.30
2022-10-05T08:02:34.512Z,17.40
2022-10-05T08:06:49.016Z,17.40
2022-10-05T08:10:59.769Z,17.40
2022-10-05T08:14:53.819Z,17.40
2022-10-05T08:18:38.535Z,17.40
2022-10-05T08:22:29.374Z,17.40
2022-10-05T08:26:14.088Z,17.50
2022-10-05T08:30:01.466Z,17.50
2022-10-05T08:33:58.806Z,17.60
2022-10-05T08:37:43.113Z,17.60
2022-10-05T08:41:56.143Z,17.70
2022-10-05T08:46:08.566Z,17.70
2022-10-05T08:50:13.191Z,17.70
2022-10-05T08:54:25.842Z,17.80
2022-10-05T08:58:26.650Z,17.90
2022-10-05T09:02:23.399Z,17.80
2022-10-05T09:06:08.482Z,17.80
2022-10-05T09:10:05.657Z,17.70
2022-10-05T09:13:57.929Z,17.70
2022-10-05T09:18:21.478Z,17.70
2022-10-05T09:22:06.440Z,17.60
2022-10-05T09:26:09.337Z,17.60
2022-10-05T09:30:02.829Z,17.60
2022-10-05T09:34:01.753Z,17.60
2022-10-05T09:37:55.951Z,17.40
2022-10-05T09:41:56.178Z,17.40
2022-10-05T09:46:01.514Z,17.20
2022-10-05T09:49:58.472Z,17.00
2022-10-05T09:53:43.527Z,17.00
2022-10-05T09:57:40.216Z,16.90
2022-10-05T10:01:35.000Z,16.90
2022-10-05T10:05:32.654Z,16.90
2022-10-05T10:09:36.597Z,16.80
2022-10-05T10:13:45.740Z,16.80
2022-10-05T10:17:30.738Z,16.70
2022-10-05T10:21:30.899Z,16.60
2022-10-05T10:25:22.381Z,16.60
2022-10-05T10:29:23.391Z,16.50
2022-10-05T10:33:19.777Z,16.50
2022-10-05T10:37:31.824Z,16.50
2022-10-05T10:41:34.621Z,16.40
2022-10-05T10:45:25.448Z,16.40
2022-10-05T10:49:15.784Z,16.40
2022-10-05T10:53:11.203Z,16.40
2022-10-05T10:57:15.239Z,16.50
2022-10-05T11:01:22.203Z,16.50
2022-10-05T11:05:32.310Z,16.60
2022-10-05T11:09:27.772Z,16.70
2022-10-05T11:13:28.558Z,16.80
2022-10-05T11:17:15.570Z,16.60
2022-10-05T11:21:17.579Z,16.40
2022-10-05T11:25:02.542Z,16.20
2022-10-05T11:29:12.716Z,15.90
2022-10-05T11:33:38.890Z,15.80
2022-10-05T11:37:20.782Z,15.60
2022-10-05T11:41:35.125Z,15.50
2022-10-05T11:45:27.920Z,15.40
2022-10-05T11:49:48.137Z,15.30
2022-10-05T11:53:32.638Z,15.10
2022-10-05T11:57:32.953Z,15.10
2022-10-05T12:01:23.455Z,15.00
2022-10-05T12:05:32.664Z,15.00
2022-10-05T12:10:21.348Z,15.10
2022-10-05T12:14:33.531Z,15.00
2022-10-05T12:18:19.514Z,15.00
2022-10-05T12:22:15.573Z,15.10
2022-10-05T12:26:00.543Z,15.00
2022-10-05T12:29:49.211Z,15.00
2022-10-05T12:34:03.082Z,15.10
2022-10-05T12:38:20.599Z,15.20
2022-10-05T12:42:39.401Z,15.20
2022-10-05T12:46:39.780Z,15.20
2022-10-05T12:50:47.003Z,15.40
2022-10-05T12:54:47.085Z,15.60
2022-10-05T12:58:38.802Z,15.80
2022-10-05T13:02:39.144Z,15.90
2022-10-05T13:06:40.087Z,15.90
2022-10-05T13:10:46.784Z,16.00
2022-10-05T13:14:52.193Z,16.00
2022-10-05T13:18:49.972Z,15.80
2022-10-05T13:22:43.499Z,15.50
2022-10-05T13:26:33.547Z,15.20
2022-10-05T13:30:22.120Z,15.10
2022-10-05T13:34:24.735Z,15.00
2022-10-05T13:38:27.682Z,14.90
2022-10-05T13:42:11.266Z,15.00
2022-10-05T13:46:24.222Z,15.10
2022-10-05T13:50:26.589Z,15.30
2022-10-05T13:54:40.577Z,15.30
2022-10-05T13:58:44.935Z,15.30
2022-10-05T14:02:38.346Z,15.30
2022-10-05T14:06:30.094Z,15.30
2022-10-05T14:10:14.493Z,15.40
2022-10-05T14:14:14.217Z,15.40
2022-10-05T14:17:56.290Z,15.50
2022-10-05T14:21:58.809Z,15.50
2022-10-05T14:25:53.762Z,15.50
2022-10-05T14:29:38.253Z,15.60
2022-10-05T14:33:21.551Z,15.70
2022-10-05T14:37:20.616Z,15.80
2022-10-05T14:41:19.819Z,16.30
2022-10-05T14:45:17.846Z,17.20
2022-10-05T14:49:30.229Z,17.90
2022-10-05T14:53:12.165Z,18.60
2022-10-05T14:57:00.103Z,19.20
2022-10-05T15:00:55.399Z,19.10
2022-10-05T15:04:44.849Z,18.40
2022-10-05T15:09:09.134Z,18.00
2022-10-05T15:13:16.130Z,17.60
2022-10-05T15:17:12.722Z,17.20
2022-10-05T15:21:00.597Z,16.90
2022-10-05T15:24:51.778Z,16.70
2022-10-05T15:28:42.337Z,16.60
2022-10-05T15:32:42.316Z,16.60
2022-10-05T15:36:35.761Z,16.60
2022-10-05T15:40:28.091Z,16.50
2022-10-05T15:44:24.257Z,16.40
2022-10-05T15:48:06.299Z,16.60
2022-10-05T15:52:06.041Z,16.90
2022-10-05T15:55:51.269Z,16.80
2022-10-05T15:59:38.674Z,16.80
2022-10-05T16:03:26.491Z,16.90
2022-10-05T16:07:37.519Z,17.40
2022-10-05T16:11:41.380Z,17.30
2022-10-05T16:15:46.458Z,17.00
2022-10-05T16:19:35.262Z,16.80
2022-10-05T16:23:29.871Z,16.70
2022-10-05T16:27:57.343Z,16.60
2022-10-05T16:31:47.193Z,16.40
2022-10-05T16:35:56.910Z,16.80
2022-10-05T16:40:02.818Z,17.50
2022-10-05T16:44:00.608Z,18.10
2022-10-05T16:47:48.652Z,18.20
2022-10-05T16:51:52.282Z,18.00
2022-10-05T16:55:42.115Z,17.50
2022-10-05T16:59:48.554Z,17.00
2022-10-05T17:04:06.952Z,16.70
2022-10-05T17:08:27.858Z,16.40
2022-10-05T17:12:34.576Z,16.10
2022-10-05T17:16:50.450Z,15.90
2022-10-05T17:20:42.964Z,15.80
2022-10-05T17:24:27.832Z,15.60
2022-10-05T17:28:18.296Z,15.50
2022-10-05T17:32:06.334Z,15.40
2022-10-05T17:36:12.855Z,15.30
2022-10-05T17:39:56.645Z,15.10
2022-10-05T17:43:38.686Z,15.00
2022-10-05T17:47:59.377Z,14.80
2022-10-05T17:51:59.915Z,14.70
2022-10-05T17:55:46.258Z,14.60
2022-10-05T17:59:46.475Z,14.50
2022-10-05T18:03:51.844Z,14.40
2022-10-05T18:07:38.609Z,14.40
2022-10-05T18:11:38.277Z,14.30
2022-10-05T18:15:26.206Z,14.20
2022-10-05T18:19:16.789Z,14.10
2022-10-05T18:23:07.273Z,14.10
2022-10-05T18:27:31.999Z,14.00
2022-10-05T18:31:51.424Z,13.90
2022-10-05T18:35:42.980Z,13.90
2022-10-05T18:39:45.802Z,13.90
2022-10-05T18:43:30.784Z,13.90
2022-10-05T18:47:18.150Z,13.90
2022-10-05T18:51:12.734Z,13.80
2022-10-05T18:54:55.028Z,13.80
2022-10-05T18:58:52.064Z,13.70
2022-10-05T19:02:48.236Z,13.60
2022-10-05T19:06:34.714Z,13.60
2022-10-05T19:10:51.858Z,13.50
2022-10-05T19:14:47.447Z,13.50
2022-10-05T19:18:29.751Z,13.40
2022-10-05T19:22:42.792Z,13.40
2022-10-05T19:26:54.901Z,13.40
2022-10-05T19:31:17.987Z,13.40
2022-10-05T19:35:11.510Z,13.40
2022-10-05T19:39:21.360Z,13.40
2022-10-05T19:43:37.982Z,13.30
2022-10-05T19:47:44.443Z,13.30
2022-10-05T19:51:31.820Z,13.30
2022-10-05T19:55:15.644Z,13.10
2022-10-05T19:58:59.385Z,13.00
2022-10-05T20:02:42.197Z,12.90
2022-10-05T20:06:26.808Z,12.80
2022-10-05T20:10:30.775Z,12.60
2022-10-05T20:14:13.874Z,12.60
2022-10-05T20:18:14.469Z,12.60
2022-10-05T20:21:59.218Z,12.60
2022-10-05T20:25:41.578Z,12.50
2022-10-05T20:29:23.533Z,12.40
2022-10-05T20:33:10.532Z,12.40
2022-10-05T20:36:52.479Z,12.30
2022-10-05T20:40:35.142Z,12.20
2022-10-05T20:44:17.078Z,12.20
2022-10-05T20:47:59.132Z,12.10
2022-10-05T20:51:41.058Z,12.00
2022-10-05T20:55:22.968Z,12.10
2022-10-05T20:59:04.858Z,12.10
2022-10-05T21:02:47.004Z,12.10
2022-10-05T21:06:29.504Z,12.10
2022-10-05T21:10:12.072Z,12.10
2022-10-05T21:13:54.628Z,12.10
2022-10-05T21:17:38.102Z,12.00
2022-10-05T21:21:20.190Z,12.10
2022-10-05T21:25:02.562Z,12.00
2022-10-05T21:28:44.500Z,12.00
2022-10-05T21:32:26.517Z,12.00
2022-10-05T21:36:08.458Z,12.00
2022-10-05T21:39:50.427Z,11.90
2022-10-05T21:43:32.321Z,11.90
2022-10-05T21:47:14.237Z,11.90
2022-10-05T21:50:56.243Z,11.90
2022-10-05T21:54:38.261Z,11.90
2022-10-05T21:58:22.546Z,11.90
2022-10-05T22:02:04.522Z,11.90
2022-10-05T22:05:46.601Z,11.80
2022-10-05T22:09:28.665Z,11.80
2022-10-05T22:13:10.693Z,11.80
2022-10-05T22:16:53.413Z,11.80
2022-10-05T22:20:35.776Z,11.80
2022-10-05T22:24:17.806Z,11.80
2022-10-05T22:28:02.983Z,11.70
2022-10-05T22:31:48.750Z,11.70
2022-10-05T22:35:37.078Z,11.60
2022-10-05T22:39:19.153Z,11.60
2022-10-05T22:43:01.019Z,11.60
2022-10-05T22:46:43.189Z,11.60
2022-10-05T22:50:25.150Z,11.60
2022-10-05T22:54:07.165Z,11.60
2022-10-05T22:57:49.404Z,11.60
2022-10-05T23:01:31.398Z,11.60
2022-10-05T23:05:14.661Z,11.50
2022-10-05T23:08:56.968Z,11.50
2022-10-05T23:12:39.139Z,11.60
2022-10-05T23:16:23.697Z,11.60
2022-10-05T23:20:08.600Z,11.60
2022-10-05T23:23:53.561Z,11.50
2022-10-05T23:27:40.094Z,11.40
2022-10-05T23:31:25.447Z,11.40
2022-10-05T23:35:08.877Z,11.40
2022-10-05T23:38:51.380Z,11.50
2022-10-05T23:42:33.351Z,11.40
2022-10-05T23:46:16.158Z,11.40
2022-10-05T23:49:58.156Z,11.40
2022-10-05T23:53:40.081Z,11.40
2022-10-05T23:57:22.005Z,11.30
